createdAt,value
2022-10-11T00:00:10.105Z,16.20
2022-10-11T00:02:38.250Z,16.10
2022-10-11T00:05:05.439Z,16.00
2022-10-11T00:07:32.202Z,16.00
2022-10-11T00:10:02.006Z,16.00
2022-10-11T00:12:29.763Z,16.00
2022-10-11T00:14:56.506Z,15.90
2022-10-11T00:17:25.143Z,15.90
2022-10-11T00:19:51.894Z,15.90
2022-10-11T00:22:18.645Z,15.80
2022-10-11T00:24:46.643Z,15.80
2022-10-11T00:27:13.869Z,15.80
2022-10-11T00:29:40.570Z,15.80
2022-10-11T00:32:07.339Z,15.80
2022-10-11T00:34:34.056Z,15.70
2022-10-11T00:37:00.769Z,15.70
2022-10-11T00:39:27.653Z,15.70
2022-10-11T00:41:54.723Z,15.70
2022-10-11T00:44:26.308Z,15.60
2022-10-11T00:47:03.179Z,15.50
2022-10-11T00:49:38.567Z,15.50
2022-10-11T00:52:20.634Z,15.40
2022-10-11T00:54:48.957Z,15.30
2022-10-11T00:57:22.061Z,15.30
2022-10-11T00:59:52.789Z,15.20
2022-10-11T01:02:20.498Z,15.10
2022-10-11T01:04:47.481Z,15.10
2022-10-11T01:07:14.319Z,15.00
2022-10-11T01:09:41.290Z,15.00
2022-10-11T01:12:18.206Z,14.90
2022-10-11T01:15:23.844Z,14.90
2022-10-11T01:18:04.190Z,14.80
2022-10-11T01:21:05.627Z,14.80
2022-10-11T01:23:35.698Z,14.80
2022-10-11T01:26:35.443Z,14.70
2022-10-11T01:29:28.992Z,14.60
2022-10-11T01:32:10.803Z,14.50
2022-10-11T01:34:56.625Z,14.50
2022-10-11T01:37:42.058Z,14.40
2022-10-11T01:40:11.310Z,14.40
2022-10-11T01:42:40.392Z,14.30
2022-10-11T01:45:15.059Z,14.20
2022-10-11T01:47:42.996Z,14.20
2022-10-11T01:50:36.633Z,14.20
2022-10-11T01:53:15.854Z,14.10
2022-10-11T01:56:22.915Z,14.10
2022-10-11T01:59:19.899Z,14.00
2022-10-11T02:02:10.790Z,14.00
2022-10-11T02:04:49.317Z,13.90
2022-10-11T02:07:45.661Z,13.90
2022-10-11T02:10:21.966Z,13.80
2022-10-11T02:12:59.644Z,13.80
2022-10-11T02:15:31.289Z,13.80
2022-10-11T02:18:02.867Z,13.70
2022-10-11T02:20:32.757Z,13.70
2022-10-11T02:23:16.741Z,13.80
2022-10-11T02:25:45.692Z,13.60
2022-10-11T02:28:22.761Z,13.50
2022-10-11T02:33:23.725Z,13.40
2022-10-11T02:36:01.339Z,13.50
2022-10-11T02:38:35.577Z,13.50
2022-10-11T02:41:13.014Z,13.40
2022-10-11T02:43:48.415Z,13.30
2022-10-11T02:46:17.812Z,13.30
2022-10-11T02:48:44.972Z,13.30
2022-10-11T02:51:14.069Z,13.30
2022-10-11T02:53:44.562Z,13.30
2022-10-11T02:56:12.428Z,13.20
2022-10-11T02:58:39.213Z,13.20
2022-10-11T03:01:09.534Z,13.00
2022-10-11T03:03:36.757Z,13.10
2022-10-11T03:06:06.301Z,13.00
2022-10-11T03:08:35.167Z,13.00
2022-10-11T03:11:02.973Z,13.00
2022-10-11T03:13:29.633Z,13.00
2022-10-11T03:16:03.296Z,13.00
2022-10-11T03:18:34.561Z,12.90
2022-10-11T03:21:01.489Z,12.90
2022-10-11T03:23:28.270Z,12.80
2022-10-11T03:25:55.023Z,12.80
2022-10-11T03:28:22.066Z,12.80
2022-10-11T03:30:49.493Z,12.70
2022-10-11T03:33:18.258Z,12.70
2022-10-11T03:35:45.929Z,12.70
2022-10-11T03:38:23.671Z,12.60
2022-10-11T03:40:50.927Z,12.60
2022-10-11T03:43:18.068Z,12.60
2022-10-11T03:45:44.838Z,12.60
2022-10-11T03:48:12.376Z,12.50
2022-10-11T03:50:39.712Z,12.50
2022-10-11T03:53:08.430Z,12.50
2022-10-11T03:55:35.234Z,12.40
2022-10-11T03:58:02.933Z,12.40
2022-10-11T04:00:29.747Z,12.40
2022-10-11T04:02:56.454Z,12.30
2022-10-11T04:05:25.594Z,12.30
2022-10-11T04:07:57.577Z,12.30
2022-10-11T04:10:24.274Z,12.30
2022-10-11T04:12:50.922Z,12.20
2022-10-11T04:15:17.653Z,12.20
2022-10-11T04:17:45.394Z,12.20
2022-10-11T04:20:12.116Z,12.20
2022-10-11T04:22:38.815Z,12.10
2022-10-11T04:25:07.334Z,12.10
2022-10-11T04:27:36.037Z,12.10
2022-10-11T04:30:04.277Z,12.20
2022-10-11T04:32:31.041Z,12.10
2022-10-11T04:34:57.988Z,12.20
2022-10-11T04:37:24.701Z,12.10
2022-10-11T04:39:52.674Z,12.10
2022-10-11T04:42:21.450Z,12.10
2022-10-11T04:44:48.114Z,12.10
2022-10-11T04:47:14.928Z,12.00
2022-10-11T04:49:41.678Z,12.00
2022-10-11T04:52:08.542Z,12.00
2022-10-11T04:54:35.228Z,12.00
2022-10-11T04:57:01.889Z,12.00
2022-10-11T04:59:28.630Z,12.00
2022-10-11T05:01:55.351Z,12.00
2022-10-11T05:04:22.193Z,12.00
2022-10-11T05:06:48.898Z,12.00
2022-10-11T05:09:15.655Z,12.00
2022-10-11T05:11:42.304Z,12.00
2022-10-11T05:14:08.966Z,12.00
2022-10-11T05:16:35.802Z,12.00
2022-10-11T05:19:02.517Z,12.00
2022-10-11T05:21:30.489Z,12.00
2022-10-11T05:23:57.904Z,12.10
2022-10-11T05:26:27.710Z,12.10
2022-10-11T05:28:55.278Z,12.10
2022-10-11T05:31:22.552Z,12.10
2022-10-11T05:33:49.432Z,12.10
2022-10-11T05:36:16.384Z,12.20
2022-10-11T05:38:43.122Z,12.10
2022-10-11T05:41:15.352Z,12.20
2022-10-11T05:43:42.483Z,12.20
2022-10-11T05:46:09.307Z,12.20
2022-10-11T05:48:36.271Z,12.30
2022-10-11T05:51:06.446Z,12.30
2022-10-11T05:53:33.559Z,12.30
2022-10-11T05:56:00.372Z,12.40
2022-10-11T05:58:27.686Z,12.40
2022-10-11T06:00:56.768Z,12.40
2022-10-11T06:03:23.953Z,12.40
2022-10-11T06:05:55.775Z,12.50
2022-10-11T06:08:25.540Z,12.50
2022-10-11T06:10:52.302Z,12.50
2022-10-11T06:13:18.984Z,12.50
2022-10-11T06:15:46.909Z,12.60
2022-10-11T06:18:13.824Z,12.60
2022-10-11T06:20:40.596Z,12.60
2022-10-11T06:23:07.308Z,12.70
2022-10-11T06:25:33.982Z,12.70
2022-10-11T06:28:00.712Z,12.70
2022-10-11T06:30:27.541Z,12.70
2022-10-11T06:32:54.311Z,12.70
2022-10-11T06:35:21.617Z,12.70
2022-10-11T06:37:48.318Z,12.80
2022-10-11T06:40:15.556Z,13.00
2022-10-11T06:42:42.264Z,12.80
2022-10-11T06:45:09.340Z,12.90
2022-10-11T06:47:36.132Z,12.90
2022-10-11T06:50:03.002Z,12.90
2022-10-11T06:52:29.748Z,13.00
2022-10-11T06:54:56.439Z,13.00
2022-10-11T06:57:23.113Z,13.10
2022-10-11T06:59:49.970Z,13.10
2022-10-11T07:02:16.739Z,13.10
2022-10-11T07:04:44.797Z,13.20
2022-10-11T07:07:14.226Z,13.20
2022-10-11T07:09:41.325Z,13.20
2022-10-11T07:12:08.326Z,13.20
2022-10-11T07:14:35.019Z,13.30
2022-10-11T07:17:01.767Z,13.30
2022-10-11T07:19:28.649Z,13.30
2022-10-11T07:21:55.364Z,13.30
2022-10-11T07:24:22.121Z,13.40
2022-10-11T07:26:49.923Z,13.40
2022-10-11T07:29:16.700Z,13.40
2022-10-11T07:31:43.909Z,13.40
2022-10-11T07:34:12.210Z,13.50
2022-10-11T07:36:39.172Z,13.50
2022-10-11T07:39:08.140Z,13.50
2022-10-11T07:41:35.616Z,13.50
2022-10-11T07:44:03.312Z,13.50
2022-10-11T07:46:30.247Z,13.50
2022-10-11T07:48:57.259Z,13.50
2022-10-11T07:51:24.632Z,13.50
2022-10-11T07:53:53.732Z,13.60
2022-10-11T07:56:23.042Z,13.60
2022-10-11T07:58:51.783Z,13.60
2022-10-11T08:01:19.595Z,13.60
2022-10-11T08:03:47.213Z,13.60
2022-10-11T08:06:15.896Z,13.60
2022-10-11T08:08:42.862Z,13.60
2022-10-11T08:11:10.474Z,13.60
2022-10-11T08:13:37.194Z,13.70
2022-10-11T08:16:11.593Z,13.70
2022-10-11T08:18:39.361Z,13.70
2022-10-11T08:21:11.070Z,13.70
2022-10-11T08:23:37.944Z,13.70
2022-10-11T08:26:06.212Z,13.70
2022-10-11T08:28:33.467Z,13.80
2022-10-11T08:31:00.373Z,13.80
2022-10-11T08:33:27.132Z,13.80
2022-10-11T08:35:55.434Z,13.90
2022-10-11T08:38:22.117Z,13.90
2022-10-11T08:40:57.462Z,13.90
2022-10-11T08:43:36.732Z,13.90
2022-10-11T08:46:06.408Z,13.90
2022-10-11T08:51:03.594Z,14.00
2022-10-11T08:53:56.946Z,14.00
2022-10-11T08:56:26.456Z,14.10
2022-10-11T08:59:04.498Z,14.10
2022-10-11T09:01:31.727Z,14.10
2022-10-11T09:04:02.910Z,14.10
2022-10-11T09:07:04.773Z,14.20
2022-10-11T09:10:03.070Z,14.20
2022-10-11T09:13:08.123Z,14.20
2022-10-11T09:15:37.622Z,14.20
2022-10-11T09:18:19.491Z,14.20
2022-10-11T09:20:52.910Z,14.20
2022-10-11T09:23:43.891Z,14.20
2022-10-11T09:26:25.583Z,14.30
2022-10-11T09:29:17.174Z,14.30
2022-10-11T09:31:52.545Z,14.40
2022-10-11T09:34:21.866Z,14.40
2022-10-11T09:37:18.088Z,14.50
2022-10-11T09:39:57.926Z,14.60
2022-10-11T09:42:24.717Z,14.60
2022-10-11T09:44:52.000Z,14.60
2022-10-11T09:47:30.102Z,14.60
2022-10-11T09:50:06.590Z,14.70
2022-10-11T09:52:35.031Z,14.70
2022-10-11T09:55:04.221Z,14.80
2022-10-11T09:57:38.584Z,14.80
2022-10-11T10:00:22.080Z,14.90
2022-10-11T10:02:50.056Z,15.10
2022-10-11T10:05:17.029Z,15.20
2022-10-11T10:08:09.419Z,15.30
2022-10-11T10:10:49.439Z,15.50
2022-10-11T10:13:41.826Z,15.50
2022-10-11T10:16:24.346Z,15.60
2022-10-11T10:18:53.744Z,15.70
2022-10-11T10:21:36.006Z,15.60
2022-10-11T10:24:09.522Z,15.60
2022-10-11T10:26:37.525Z,15.60
2022-10-11T10:29:10.185Z,15.60
2022-10-11T10:31:54.949Z,15.60
2022-10-11T10:34:35.163Z,15.60
2022-10-11T10:37:33.629Z,15.60
2022-10-11T10:40:16.884Z,15.60
2022-10-11T10:42:43.620Z,15.60
2022-10-11T10:45:21.759Z,15.70
2022-10-11T10:50:32.664Z,15.80
2022-10-11T10:53:02.553Z,15.80
2022-10-11T10:55:59.718Z,15.80
2022-10-11T10:58:45.410Z,15.90
2022-10-11T11:01:26.582Z,15.90
2022-10-11T11:04:05.434Z,16.00
2022-10-11T11:06:50.787Z,16.10
2022-10-11T11:09:26.242Z,16.10
2022-10-11T11:12:03.513Z,16.10
2022-10-11T11:14:51.382Z,16.10
2022-10-11T11:17:57.179Z,16.10
2022-10-11T11:20:45.282Z,16.10
2022-10-11T11:23:18.237Z,16.10
2022-10-11T11:26:11.169Z,16.10
2022-10-11T11:28:50.000Z,16.10
2022-10-11T11:31:35.725Z,16.10
2022-10-11T11:34:18.233Z,16.10
2022-10-11T11:36:47.113Z,16.10
2022-10-11T11:39:23.539Z,16.10
2022-10-11T11:42:08.992Z,16.20
2022-10-11T11:44:44.189Z,16.20
2022-10-11T11:47:25.246Z,16.30
2022-10-11T11:52:47.013Z,16.50
2022-10-11T11:55:21.322Z,16.50
2022-10-11T11:58:22.493Z,16.50
2022-10-11T12:01:05.534Z,16.50
2022-10-11T12:03:41.805Z,16.50
2022-10-11T12:06:14.709Z,16.50
2022-10-11T12:09:01.790Z,16.50
2022-10-11T12:11:37.610Z,16.40
2022-10-11T12:14:18.578Z,16.30
2022-10-11T12:17:12.298Z,16.40
2022-10-11T12:19:42.313Z,16.40
2022-10-11T12:22:27.177Z,16.40
2022-10-11T12:24:59.343Z,16.40
2022-10-11T12:27:36.112Z,16.40
2022-10-11T12:30:04.475Z,16.50
2022-10-11T12:32:38.599Z,16.50
2022-10-11T12:35:24.198Z,16.50
2022-10-11T12:37:52.067Z,16.50
2022-10-11T12:40:43.133Z,16.50
2022-10-11T12:43:23.034Z,16.50
2022-10-11T12:45:50.213Z,16.50
2022-10-11T12:48:27.424Z,16.50
2022-10-11T12:51:24.890Z,16.50
2022-10-11T12:54:26.704Z,16.50
2022-10-11T12:57:12.046Z,16.50
2022-10-11T12:59:44.742Z,16.50
2022-10-11T13:02:39.124Z,16.60
2022-10-11T13:05:26.656Z,16.60
2022-10-11T13:07:59.607Z,16.60
2022-10-11T13:10:43.962Z,16.60
2022-10-11T13:13:24.498Z,16.60
2022-10-11T13:15:54.206Z,16.60
2022-10-11T13:18:25.207Z,16.60
2022-10-11T13:20:52.592Z,16.60
2022-10-11T13:23:26.627Z,16.60
2022-10-11T13:25:55.400Z,16.50
2022-10-11T13:28:23.368Z,16.60
2022-10-11T13:30:54.713Z,16.60
2022-10-11T13:33:33.508Z,16.70
2022-10-11T13:36:02.312Z,16.60
2022-10-11T13:38:35.582Z,16.60
2022-10-11T13:41:08.186Z,16.70
2022-10-11T13:43:36.051Z,16.70
2022-10-11T13:46:06.474Z,16.70
2022-10-11T13:48:41.003Z,16.70
2022-10-11T13:51:32.805Z,16.70
2022-10-11T13:54:01.488Z,16.70
2022-10-11T13:56:32.262Z,16.70
2022-10-11T13:59:00.222Z,16.70
2022-10-11T14:01:36.357Z,16.70
2022-10-11T14:04:06.367Z,16.70
2022-10-11T14:06:56.232Z,16.70
2022-10-11T14:09:29.836Z,16.70
2022-10-11T14:12:38.157Z,16.70
2022-10-11T14:15:07.140Z,16.70
2022-10-11T14:17:45.046Z,16.70
2022-10-11T14:20:12.051Z,16.70
2022-10-11T14:22:39.173Z,16.70
2022-10-11T14:25:06.234Z,16.80
2022-10-11T14:27:36.788Z,16.70
2022-10-11T14:30:26.063Z,16.70
2022-10-11T14:32:56.271Z,16.70
2022-10-11T14:35:26.671Z,16.70
2022-10-11T14:37:53.866Z,16.70
2022-10-11T14:40:24.614Z,16.70
2022-10-11T14:42:52.785Z,16.70
2022-10-11T14:45:21.290Z,16.70
2022-10-11T14:47:48.376Z,16.70
2022-10-11T14:50:25.959Z,16.70
2022-10-11T14:52:53.056Z,16.70
2022-10-11T14:55:20.340Z,16.70
2022-10-11T14:57:47.259Z,16.70
2022-10-11T15:00:38.874Z,16.70
2022-10-11T15:03:07.417Z,16.70
2022-10-11T15:05:34.519Z,16.70
2022-10-11T15:15:41.810Z,16.70
2022-10-11T15:18:14.231Z,16.70
2022-10-11T15:20:51.922Z,16.70
2022-10-11T15:23:19.079Z,16.70
2022-10-11T15:25:46.287Z,16.70
2022-10-11T15:28:33.852Z,16.70
2022-10-11T15:31:00.865Z,16.60
2022-10-11T15:33:27.543Z,16.60
2022-10-11T15:35:56.451Z,16.70
2022-10-11T15:38:25.387Z,16.60
2022-10-11T15:40:53.314Z,16.70
2022-10-11T15:43:24.455Z,16.70
2022-10-11T15:45:56.493Z,16.70
2022-10-11T15:48:26.608Z,16.70
2022-10-11T15:50:54.388Z,16.60
2022-10-11T15:53:23.670Z,16.60
2022-10-11T15:55:55.901Z,16.60
2022-10-11T15:58:30.272Z,16.60
2022-10-11T16:01:00.788Z,16.60
2022-10-11T16:03:30.068Z,16.60
2022-10-11T16:06:04.634Z,16.60
2022-10-11T16:08:32.165Z,16.60
2022-10-11T16:10:59.465Z,16.60
2022-10-11T16:13:26.226Z,16.60
2022-10-11T16:15:53.093Z,16.60
2022-10-11T16:18:21.181Z,16.50
2022-10-11T16:20:51.096Z,16.50
2022-10-11T16:23:18.761Z,16.50
2022-10-11T16:25:45.948Z,16.50
2022-10-11T16:28:12.712Z,16.50
2022-10-11T16:30:43.273Z,16.50
2022-10-11T16:33:10.112Z,16.50
2022-10-11T16:35:41.952Z,16.40
2022-10-11T16:38:08.911Z,16.40
2022-10-11T16:40:37.681Z,16.40
2022-10-11T16:43:07.910Z,16.40
2022-10-11T16:45:36.121Z,16.40
2022-10-11T16:48:03.467Z,16.40
2022-10-11T16:50:30.267Z,16.40
2022-10-11T16:52:57.294Z,16.30
2022-10-11T16:55:24.450Z,16.30
2022-10-11T16:57:55.232Z,16.30
2022-10-11T17:00:22.078Z,16.30
2022-10-11T17:02:48.836Z,16.20
2022-10-11T17:05:15.912Z,16.20
2022-10-11T17:07:43.557Z,16.20
2022-10-11T17:10:10.295Z,16.10
2022-10-11T17:12:38.632Z,16.10
2022-10-11T17:15:06.628Z,16.10
2022-10-11T17:17:33.396Z,16.00
2022-10-11T17:20:02.298Z,16.00
2022-10-11T17:22:29.138Z,15.90
2022-10-11T17:24:55.846Z,15.90
2022-10-11T17:27:25.086Z,15.80
2022-10-11T17:29:51.842Z,15.70
2022-10-11T17:32:20.441Z,15.60
2022-10-11T17:34:47.953Z,15.60
2022-10-11T17:37:14.635Z,15.50
2022-10-11T17:39:41.608Z,15.40
2022-10-11T17:42:11.352Z,15.40
2022-10-11T17:44:38.101Z,15.40
2022-10-11T17:47:04.925Z,15.40
2022-10-11T17:49:31.739Z,15.30
2022-10-11T17:51:58.620Z,15.20
2022-10-11T17:54:25.805Z,15.20
2022-10-11T17:56:52.952Z,15.10
2022-10-11T17:59:27.283Z,15.10
2022-10-11T18:01:54.634Z,15.00
2022-10-11T18:04:22.191Z,15.00
2022-10-11T18:06:49.217Z,14.90
2022-10-11T18:09:18.549Z,14.90
2022-10-11T18:11:46.543Z,14.80
2022-10-11T18:14:13.372Z,14.80
2022-10-11T18:16:40.212Z,14.80
2022-10-11T18:19:11.547Z,14.70
2022-10-11T18:21:38.479Z,14.70
2022-10-11T18:24:11.109Z,14.60
2022-10-11T18:26:38.529Z,14.60
2022-10-11T18:29:07.775Z,14.60
2022-10-11T18:31:36.449Z,14.60
2022-10-11T18:34:04.773Z,14.60
2022-10-11T18:36:32.386Z,14.60
2022-10-11T18:39:02.962Z,14.40
2022-10-11T18:41:32.911Z,14.40
2022-10-11T18:44:02.715Z,14.40
2022-10-11T18:46:30.515Z,14.30
2022-10-11T18:48:58.726Z,14.30
2022-10-11T18:51:37.854Z,14.20
2022-10-11T18:54:06.160Z,14.20
2022-10-11T18:56:36.503Z,14.10
2022-10-11T18:59:04.705Z,14.00
2022-10-11T19:01:34.094Z,14.00
2022-10-11T19:04:02.533Z,14.00
2022-10-11T19:06:36.442Z,13.90
2022-10-11T19:09:10.665Z,13.90
2022-10-11T19:11:40.484Z,13.90
2022-10-11T19:14:14.587Z,13.80
2022-10-11T19:16:43.696Z,13.80
2022-10-11T19:19:12.044Z,13.80
2022-10-11T19:21:39.139Z,13.70
2022-10-11T19:24:06.359Z,13.70
2022-10-11T19:26:36.003Z,13.60
2022-10-11T19:29:07.657Z,13.60
2022-10-11T19:31:37.036Z,13.60
2022-10-11T19:34:03.980Z,13.60
2022-10-11T19:36:36.476Z,13.50
2022-10-11T19:39:05.162Z,13.50
2022-10-11T19:41:32.479Z,13.50
2022-10-11T19:44:00.597Z,13.40
2022-10-11T19:49:17.644Z,13.40
2022-10-11T19:51:44.938Z,13.30
2022-10-11T19:54:14.004Z,13.30
2022-10-11T19:56:42.886Z,13.30
2022-10-11T19:59:11.206Z,13.20
2022-10-11T20:01:38.393Z,13.20
2022-10-11T20:04:08.022Z,13.20
2022-10-11T20:06:38.595Z,13.10
2022-10-11T20:09:28.443Z,13.10
2022-10-11T20:11:54.562Z,13.10
2022-10-11T20:14:21.318Z,13.00
2022-10-11T20:16:50.656Z,13.00
2022-10-11T20:19:18.067Z,13.00
2022-10-11T20:21:45.234Z,13.00
2022-10-11T20:24:12.224Z,12.90
2022-10-11T20:26:39.423Z,12.90
2022-10-11T20:29:06.953Z,12.90
2022-10-11T20:31:38.486Z,12.80
2022-10-11T20:34:07.536Z,12.80
2022-10-11T20:36:36.144Z,12.70
2022-10-11T20:39:04.834Z,12.70
2022-10-11T20:41:36.857Z,12.70
2022-10-11T20:44:04.660Z,12.70
2022-10-11T20:46:37.668Z,12.70
2022-10-11T20:49:07.172Z,12.70
2022-10-11T20:51:37.204Z,12.70
2022-10-11T20:54:05.003Z,12.60
2022-10-11T20:56:32.613Z,12.60
2022-10-11T20:59:00.041Z,12.60
2022-10-11T21:01:32.993Z,12.60
2022-10-11T21:04:01.518Z,12.50
2022-10-11T21:06:29.943Z,12.50
2022-10-11T21:08:59.186Z,12.50
2022-10-11T21:11:33.751Z,12.50
2022-10-11T21:14:02.539Z,12.50
2022-10-11T21:16:30.537Z,12.40
2022-10-11T21:18:59.117Z,12.40
2022-10-11T21:21:27.027Z,12.40
2022-10-11T21:24:01.895Z,12.40
2022-10-11T21:26:29.941Z,12.40
2022-10-11T21:28:59.299Z,12.40
2022-10-11T21:31:31.010Z,12.30
2022-10-11T21:33:59.860Z,12.30
2022-10-11T21:36:27.313Z,12.30
2022-10-11T21:38:54.221Z,12.30
2022-10-11T21:41:23.220Z,12.30
2022-10-11T21:43:50.018Z,12.30
2022-10-11T21:46:22.249Z,12.30
2022-10-11T21:48:52.279Z,12.30
2022-10-11T21:51:27.369Z,12.20
2022-10-11T21:53:55.824Z,12.20
2022-10-11T21:56:22.527Z,12.20
2022-10-11T21:58:50.181Z,12.20
2022-10-11T22:01:19.922Z,12.20
2022-10-11T22:03:47.527Z,12.20
2022-10-11T22:06:15.116Z,12.10
2022-10-11T22:08:42.377Z,12.10
2022-10-11T22:11:09.840Z,12.10
2022-10-11T22:13:37.070Z,12.10
2022-10-11T22:16:08.955Z,12.10
2022-10-11T22:18:36.975Z,12.00
2022-10-11T22:21:15.915Z,12.00
2022-10-11T22:23:44.744Z,12.00
2022-10-11T22:26:14.794Z,12.00
2022-10-11T22:28:42.257Z,12.00
2022-10-11T22:31:10.501Z,12.00
2022-10-11T22:33:37.683Z,12.00
2022-10-11T22:36:08.732Z,12.00
2022-10-11T22:38:38.455Z,11.90
2022-10-11T22:41:06.676Z,11.90
2022-10-11T22:43:34.133Z,11.90
2022-10-11T22:46:01.767Z,11.90
2022-10-11T22:48:29.685Z,11.90
2022-10-11T22:50:57.301Z,11.90
2022-10-11T22:53:23.970Z,11.90
2022-10-11T22:55:51.035Z,11.80
2022-10-11T22:58:18.095Z,11.80
2022-10-11T23:00:47.974Z,11.80
2022-10-11T23:03:16.312Z,11.80
2022-10-11T23:05:53.647Z,11.80
2022-10-11T23:08:20.325Z,11.80
2022-10-11T23:10:47.124Z,11.80
2022-10-11T23:13:13.967Z,11.70
2022-10-11T23:15:41.091Z,11.70
2022-10-11T23:18:08.060Z,11.70
2022-10-11T23:20:38.075Z,11.70
2022-10-11T23:23:05.255Z,11.70
2022-10-11T23:25:31.917Z,11.70
2022-10-11T23:28:03.289Z,11.60
2022-10-11T23:30:31.299Z,11.60
2022-10-11T23:32:58.322Z,11.60
2022-10-11T23:35:25.241Z,11.60
2022-10-11T23:37:54.148Z,11.60
2022-10-11T23:40:20.931Z,11.50
2022-10-11T23:42:47.592Z,11.50
2022-10-11T23:45:14.361Z,11.50
2022-10-11T23:47:41.320Z,11.40
2022-10-11T23:50:08.815Z,11.40
2022-10-11T23:52:35.989Z,11.40
2022-10-11T23:55:03.077Z,11.40
2022-10-11T23:57:29.783Z,11.30
2022-10-11T23:59:56.495Z,11.40
